Weather Models
Both GFS & NAM
00z 06z 12z 18z
24hr Precip
00z 06z 12z 18z
36hr Simulated radar
00z 06z 12z 18z
SKEWT Soundings
00z 12z
Current Conditions (Updated 11:30am on 11/18/19)
Temperature
 44°
1.56
44°  
39°  
0
10
20
30
40
50
60
70
80
90
100
Dew Point
35°
36°  
26°  
-20
-10
0
10
20
30
40
50
60
70
80
Wind Chill
37°
43°  
30°  
-20
-10
0
10
20
30
40
50
60
70
80
Wind Chill
Humidity
72%
78% 
59% 
0
10
20
30
40
50
60
70
80
90
100
Barometer
29.84
   Falling
30.01  
29.84  
28.00
28.30
28.60
28.90
29.20
29.50
29.80
30.10
30.40
30.70
31.00
Temperature
Dew Point
Humidity
Pressure
Wind
13mph
  N
Daily Rain
.00
.05
.10
.15
.20
.25
.30
.35
.40
.45
.50
Rain Today
 0.00" 
Month Rain
0.00
0.20
0.40
0.60
0.80
1.00
1.20
1.40
1.60
1.80
2.00
Month Rain
 0.48" 
Year Rain
0.00
5.00
10.00
15.00
20.00
25.00
30.00
35.00
40.00
45.00
50.00
Year Rain
 47.04" 
Sun & Moon Data
Sunrise 6:49am
Sunset 4:43pm
Moonrise 10:24pm
Moonset 12:18pm
Moon % 72%
Other Rain Data
Past Hour 0.00 Past 24 Hours 0.00
Past 3 Hours 0.00 Past 7 Days 0.14
Past 6 Hours 0.00
Cloud Height
2105


Current Front Map
Current Satellite map
7 Day Forecast
NWS Forecast for Philadelphia PA
National Weather Service Forecast for: Philadelphia PA
Issued by: National Weather Service Philadelphia, PA
Updated: 4:51 pm EST Nov 20, 2019

Philadelphia
 
Tonight

Tonight: Mostly clear, with a low around 37. Northwest wind 8 to 13 mph.
Mostly Clear

Thursday

Thursday: Sunny, with a high near 52. Northwest wind 5 to 7 mph becoming southwest in the afternoon.
Sunny

Thursday
Night
Thursday Night: Mostly cloudy, with a low around 43. South wind 6 to 8 mph.
Mostly Cloudy

Friday

Friday: A slight chance of showers between noon and 2pm.  Mostly cloudy, with a high near 58. Southwest wind 7 to 14 mph, with gusts as high as 25 mph.  Chance of precipitation is 20%.
Mostly Cloudy
then Slight
Chance
Showers
Friday
Night
Friday Night: Mostly clear, with a low around 33. Northwest wind 5 to 10 mph becoming light  after midnight.
Mostly Clear

Saturday

Saturday: A chance of rain, mainly after 4pm.  Mostly sunny, with a high near 48. Chance of precipitation is 30%. New precipitation amounts of less than a tenth of an inch possible.
Mostly Sunny
then Chance
Rain
Saturday
Night
Saturday Night: Rain likely, mainly between 8pm and 5am.  Cloudy, with a low around 37. Chance of precipitation is 70%.
Rain Likely

Sunday

Sunday: A chance of rain before 9am.  Mostly cloudy, with a high near 51. Chance of precipitation is 30%.
Chance Rain
then Partly
Sunny
Sunday
Night
Sunday Night: Partly cloudy, with a low around 34.
Partly Cloudy

Lo 37 °F Hi 52 °F Lo 43 °F Hi 58 °F Lo 33 °F Hi 48 °F Lo 37 °F Hi 51 °F Lo 34 °F

 

Tonight
 
Mostly clear, with a low around 37. Northwest wind 8 to 13 mph.
Thursday
 
Sunny, with a high near 52. Northwest wind 5 to 7 mph becoming southwest in the afternoon.
Thursday Night
 
Mostly cloudy, with a low around 43. South wind 6 to 8 mph.
Friday
 
A slight chance of showers between noon and 2pm. Mostly cloudy, with a high near 58. Southwest wind 7 to 14 mph, with gusts as high as 25 mph. Chance of precipitation is 20%.
Friday Night
 
Mostly clear, with a low around 33. Northwest wind 5 to 10 mph becoming light after midnight.
Saturday
 
A chance of rain, mainly after 4pm. Mostly sunny, with a high near 48. Chance of precipitation is 30%. New precipitation amounts of less than a tenth of an inch possible.
Saturday Night
 
Rain likely, mainly between 8pm and 5am. Cloudy, with a low around 37. Chance of precipitation is 70%.
Sunday
 
A chance of rain before 9am. Mostly cloudy, with a high near 51. Chance of precipitation is 30%.
Sunday Night
 
Partly cloudy, with a low around 34.
Monday
 
Sunny, with a high near 51.
Monday Night
 
Partly cloudy, with a low around 36.
Tuesday
 
Mostly sunny, with a high near 55.
Tuesday Night
 
Partly cloudy, with a low around 40.
Wednesday
 
A chance of showers. Mostly cloudy, with a high near 60. Chance of precipitation is 40%.

 

Forecast from NOAA-NWS for Philadelphia PA.

Area Weather Current Conditions
Nearby METAR Reports

KPHL - Philadelphia, Pennsylvania
Updated: Wed, 20-Nov-2019 4:54pm EST
Mostly Cloudy
Mostly Cloudy
 Wind from NNW
Wind: NNW 18 mph , 30 km/h, Gust: 29 mph , 46 km/h
Temperature: 48°F , 9°C
Wind Chill: 41°F , 5°C
Dew Point: 28°F , -2°C
Humidity: 46%
Barometer: 30.05 inHg , 1017.6 hPa
Clouds: Mostly Cloudy
Visibility: 10 miles , 16 km
Cloud details: Partly Cloudy 5500 ft
Mostly Cloudy 8000 ft
2019/11/20 21:54 KPHL 202154Z 33016G25KT 10SM SCT055 BKN080 09/M02 A3005 RMK AO2 SLP176 T00941017 $
KMPO - Mt. Pocono, Pennsylvania
Updated: Wed, 20-Nov-2019 4:53pm EST
Overcast
Overcast
 Wind from WNW
Wind: WNW 20 mph , 31 km/h, Gust: 26 mph , 43 km/h
Temperature: 36°F , 2°C
Wind Chill: 25°F , -4°C
Dew Point: 30°F , -1°C
Humidity: 81%
Barometer: 29.99 inHg , 1015.6 hPa
Clouds: Overcast
Visibility: 10 miles , 16 km
Cloud details: Overcast 2500 ft
2019/11/20 21:53 KMPO 202153Z AUTO 30017G23KT 10SM OVC025 02/M01 A2999 RMK AO2 PK WND 30028/2113 SLP172 T00221011 $
 
KACY - Atlantic City, New Jersey
Updated: Wed, 20-Nov-2019 4:54pm EST
Partly Cloudy
Partly Cloudy
 Wind from NW
Wind: NW 8 mph , 13 km/h
Temperature: 46°F , 8°C
Wind Chill: 42°F , 6°C
Dew Point: 30°F , -1°C
Humidity: 53%
Barometer: 30.02 inHg , 1016.6 hPa
Clouds: Partly Cloudy
Visibility: 10 miles , 16 km
Cloud details: Partly Cloudy 7500 ft
2019/11/20 21:54 KACY 202154Z 32007KT 10SM SCT075 08/M01 A3002 RMK AO2 SLP167 T00781006
KMIV - Millville, New Jersey
Updated: Wed, 20-Nov-2019 4:54pm EST
Overcast
Overcast
 Wind from NW
Wind: NW 9 mph , 15 km/h
Temperature: 50°F , 10°C
Wind Chill: 46°F , 8°C
Dew Point: 30°F , -1°C
Humidity: 47%
Barometer: 30.04 inHg , 1017.3 hPa
Clouds: Overcast
Visibility: 10 miles , 16 km
Cloud details: Overcast 5000 ft
2019/11/20 21:54 KMIV 202154Z AUTO 31008KT 10SM OVC050 10/M01 A3004 RMK AO2 SLP170 T01001011
 
KWWD - Wildwood, New Jersey
Updated: Wed, 20-Nov-2019 4:56pm EST
Partly Cloudy
Partly Cloudy
 Wind from WNW
Wind: WNW 9 mph , 15 km/h
Temperature: 48°F , 9°C
Wind Chill: 44°F , 7°C
Dew Point: 37°F , 3°C
Humidity: 66%
Barometer: 30.05 inHg , 1017.6 hPa
Clouds: Partly Cloudy
Visibility: 10 miles , 16 km
Cloud details: Partly Cloudy 5000 ft
2019/11/20 21:56 KWWD 202156Z AUTO 30008KT 10SM SCT050 09/03 A3005 RMK AO2 SLP177 T00890028
KDOV - Dover Afb, Delaware
Updated: Wed, 20-Nov-2019 4:56pm EST
Overcast
Overcast
 Wind from NW
Wind: NW 13 mph , 20 km/h
Temperature: 50°F , 10°C
Wind Chill: 45°F , 7°C
Dew Point: 32°F , 0°C
Humidity: 50%
Barometer: 30.06 inHg , 1017.9 hPa
Clouds: Overcast
Visibility: 10 miles , 16 km
Cloud details: Overcast 4900 ft
2019/11/20 21:56 KDOV 202156Z 31011KT 10SM OVC049 10/00 A3006 RMK AO2A SLP183 T00990000 $
Severe Weather Map